Time;durP1;ratioP1;P1;durP2;ratioP2;P2;SDS_P1;SDS_P2;PMS_P1;PMS_P2;Temp;Humidity;BMP_temperature;BMP_pressure;BME280_temperature;BME280_humidity;BME280_pressure;Samples;Min_cycle;Max_cycle;Signal;HPM_P1;HPM_P2
2021/01/05 02:21:28;;;;;;;;;;;8.30;99.90;;;7.63;100.00;100274.38;5126384;28;19988;-63
2021/01/05 02:24:07;;;;;;;;;;;8.30;99.90;;;7.63;100.00;100276.25;5133365;28;19976;-63
2021/01/05 02:26:42;;;;;;;;;;;8.30;99.90;;;7.64;100.00;100272.47;5134291;27;19976;-63
2021/01/05 02:29:12;;;;;;;;;;;8.30;99.90;;;7.66;100.00;100271.09;5135475;28;19927;-64
2021/01/05 02:31:45;;;;;;;;;;;8.30;99.90;;;7.67;100.00;100269.22;5135553;27;19931;-63
2021/01/05 02:34:22;;;;;;;;;;;8.30;99.90;;;7.65;100.00;100269.53;5135504;27;19946;-64
2021/01/05 02:36:58;;;;;;;;;;;8.30;99.90;;;7.65;100.00;100263.34;5134223;27;19923;-63
2021/01/05 02:39:58;;;;;;;;;;;8.30;99.90;;;7.60;100.00;100266.06;5118166;28;19927;-63
2021/01/05 02:42:50;;;;;;;;;;;8.30;99.90;;;7.52;100.00;100262.09;5127625;28;19923;-63
2021/01/05 02:45:20;;;;;;;;;;;8.20;99.90;;;7.49;100.00;100259.97;5135351;28;19980;-63
2021/01/05 02:47:59;;;;;;;;;;;8.10;99.90;;;7.41;100.00;100259.78;5134155;27;20441;-63
2021/01/05 02:50:55;;;;;;;;;;;8.10;99.90;;;7.32;100.00;100254.22;5135284;28;19927;-63
2021/01/05 02:53:34;;;;;;;;;;;8.00;99.90;;;7.23;100.00;100258.59;5135156;27;20298;-63
2021/01/05 02:56:38;;;;;;;;;;;7.90;99.90;;;7.22;100.00;100256.97;5134279;27;19934;-63
2021/01/05 02:59:40;;;;;;;;;;;7.90;99.90;;;7.27;100.00;100256.94;5132208;28;19924;-63
2021/01/05 03:02:35;;;;;;;;;;;7.90;99.90;;;7.34;100.00;100253.91;5061535;28;20036;-63
2021/01/05 03:05:06;;;;;;;;;;;8.00;99.90;;;7.30;100.00;100253.69;5118604;28;19931;-63
2021/01/05 03:07:34;;;;;;;;;;;8.00;99.90;;;7.33;100.00;100253.13;5134210;27;19924;-63
2021/01/05 03:10:39;;;;;;;;;;;8.00;99.90;;;7.28;100.00;100249.66;5134624;28;19927;-63
2021/01/05 03:13:38;;;;;;;;;;;8.00;99.90;;;7.29;100.00;100246.72;5121174;28;19925;-63
2021/01/05 03:16:09;;;;;;;;;;;7.90;99.90;;;7.30;100.00;100245.59;5115842;28;19928;-63
2021/01/05 03:18:43;;;;;;;;;;;7.90;99.90;;;7.30;100.00;100236.72;5113594;28;19928;-63
2021/01/05 03:21:16;;;;;;;;;;;7.90;99.90;;;7.31;100.00;100227.59;5114312;28;19946;-63
2021/01/05 03:23:45;;;;;;;;;;;7.90;99.90;;;7.30;100.00;100220.59;5114287;28;19924;-63
2021/01/05 03:26:13;;;;;;;;;;;7.90;99.90;;;7.29;100.00;100225.19;5113338;28;19992;-63
2021/01/05 03:28:40;;;;;;;;;;;7.90;99.90;;;7.28;100.00;100230.84;5113649;28;19931;-63
2021/01/05 03:31:11;;;;;;;;;;;7.90;99.90;;;7.29;100.00;100235.16;5114069;28;19928;-63
2021/01/05 03:33:38;;;;;;;;;;;7.90;99.90;;;7.29;100.00;100238.66;5114110;28;19978;-63
2021/01/05 03:36:06;;;;;;;;;;;7.90;99.90;;;7.33;100.00;100223.53;5113543;28;19927;-64
2021/01/05 03:38:33;;;;;;;;;;;7.90;99.90;;;7.34;100.00;100227.84;5113376;28;19927;-63
2021/01/05 03:41:00;;;;;;;;;;;8.00;99.90;;;7.36;100.00;100227.53;5096955;28;19927;-63
2021/01/05 03:43:27;;;;;;;;;;;8.00;99.90;;;7.38;100.00;100230.75;5113949;28;19977;-63
2021/01/05 03:45:54;;;;;;;;;;;8.00;99.90;;;7.43;100.00;100219.94;5094995;28;20347;-63
2021/01/05 03:48:22;;;;;;;;;;;8.10;99.90;;;7.48;100.00;100230.66;5113317;28;19928;-63
2021/01/05 03:50:49;;;;;;;;;;;8.10;99.90;;;7.51;100.00;100228.22;5113399;28;19923;-63
2021/01/05 03:53:16;;;;;;;;;;;8.10;99.90;;;7.51;100.00;100225.50;5113735;28;20374;-63
2021/01/05 03:55:44;;;;;;;;;;;8.10;99.90;;;7.48;100.00;100223.38;5078814;28;19924;-63
2021/01/05 03:58:11;;;;;;;;;;;8.10;99.90;;;7.46;100.00;100214.81;5094985;28;19976;-63
2021/01/05 04:00:39;;;;;;;;;;;8.10;99.90;;;7.41;100.00;100211.38;5095542;28;19924;-63
2021/01/05 04:03:06;;;;;;;;;;;8.10;99.90;;;7.40;100.00;100205.19;5095538;28;19985;-64
2021/01/05 04:05:34;;;;;;;;;;;8.10;99.90;;;7.37;100.00;100204.94;5113523;28;19927;-63
2021/01/05 04:08:01;;;;;;;;;;;8.00;99.90;;;7.36;100.00;100206.81;5095925;28;20514;-63
2021/01/05 04:10:28;;;;;;;;;;;8.00;99.90;;;7.35;100.00;100199.88;5133728;28;19923;-63
2021/01/05 04:12:55;;;;;;;;;;;8.00;99.90;;;7.36;100.00;100208.72;5133940;27;20018;-63
2021/01/05 04:15:24;;;;;;;;;;;8.00;99.90;;;7.36;100.00;100204.13;5115729;28;19923;-63
2021/01/05 04:17:51;;;;;;;;;;;8.00;99.90;;;7.40;100.00;100199.00;5133003;27;19923;-63
2021/01/05 04:20:19;;;;;;;;;;;8.00;99.90;;;7.38;100.00;100195.81;5133636;27;19923;-63
2021/01/05 04:22:47;;;;;;;;;;;8.00;99.90;;;7.38;100.00;100202.00;5133723;27;19980;-63
2021/01/05 04:25:16;;;;;;;;;;;8.00;99.90;;;7.38;100.00;100199.31;5133735;28;19924;-63
2021/01/05 04:27:44;;;;;;;;;;;8.00;99.90;;;7.42;100.00;100196.81;5132984;27;19923;-63
2021/01/05 04:30:18;;;;;;;;;;;8.10;99.90;;;7.46;100.00;100189.78;5132218;27;19923;-64
2021/01/05 04:32:45;;;;;;;;;;;8.10;99.90;;;7.45;100.00;100189.00;5115390;28;19924;-63
2021/01/05 04:35:13;;;;;;;;;;;8.10;99.90;;;7.41;100.00;100190.66;5133664;28;19930;-63
2021/01/05 04:37:40;;;;;;;;;;;8.10;99.90;;;7.39;100.00;100179.38;5132704;27;20385;-63
2021/01/05 04:40:11;;;;;;;;;;;8.00;99.90;;;7.32;100.00;100178.91;5132921;27;20362;-63
2021/01/05 04:42:39;;;;;;;;;;;8.00;99.90;;;7.30;100.00;100173.00;5133517;28;20020;-63
2021/01/05 04:45:09;;;;;;;;;;;8.00;99.90;;;7.30;100.00;100175.69;5133397;28;19924;-63
2021/01/05 04:47:46;;;;;;;;;;;8.00;99.90;;;7.27;100.00;100172.75;5132646;27;19927;-63
2021/01/05 04:50:14;;;;;;;;;;;7.90;99.90;;;7.26;100.00;100174.66;5132787;27;19923;-63
2021/01/05 04:52:54;;;;;;;;;;;7.90;99.90;;;7.28;100.00;100177.06;5115124;28;19930;-64
2021/01/05 04:55:32;;;;;;;;;;;7.90;99.90;;;7.26;100.00;100174.66;5133323;28;20339;-63
2021/01/05 04:58:05;;;;;;;;;;;7.90;99.90;;;7.27;100.00;100175.44;5132714;28;19976;-63
2021/01/05 05:00:35;;;;;;;;;;;7.90;99.90;;;7.28;100.00;100172.50;5132655;28;19968;-63
2021/01/05 05:03:06;;;;;;;;;;;7.90;99.90;;;7.27;100.00;100170.88;5132658;27;19927;-63
2021/01/05 05:05:47;;;;;;;;;;;7.90;99.90;;;7.29;100.00;100174.09;5115030;27;19923;-63
2021/01/05 05:08:27;;;;;;;;;;;7.90;99.90;;;7.24;100.00;100162.56;5132613;27;20391;-63
2021/01/05 05:10:58;;;;;;;;;;;7.90;99.90;;;7.24;100.00;100165.25;5132841;28;20369;-64
2021/01/05 05:13:31;;;;;;;;;;;7.90;99.90;;;7.22;100.00;100168.25;5132962;28;19931;-63
2021/01/05 05:16:08;;;;;;;;;;;7.90;99.90;;;7.16;100.00;100169.38;5132540;27;19931;-63
2021/01/05 05:18:52;;;;;;;;;;;7.80;99.90;;;7.09;100.00;100168.88;5132530;27;19924;-63
2021/01/05 05:21:32;;;;;;;;;;;7.70;99.90;;;7.02;100.00;100168.44;5132900;28;19927;-64
2021/01/05 05:24:17;;;;;;;;;;;7.70;99.90;;;6.98;100.00;100167.38;5133113;27;20293;-63
2021/01/05 05:26:49;;;;;;;;;;;7.60;99.90;;;6.94;100.00;100172.50;5115430;27;20255;-63
2021/01/05 05:29:24;;;;;;;;;;;7.60;99.90;;;6.92;100.00;100165.81;5132132;28;19930;-63
2021/01/05 05:31:52;;;;;;;;;;;7.60;99.90;;;6.91;100.00;100174.97;5132865;28;19924;-63
2021/01/05 05:34:24;;;;;;;;;;;7.50;99.90;;;6.94;100.00;100169.81;5114147;28;19935;-65
2021/01/05 05:37:16;;;;;;;;;;;7.60;99.90;;;6.90;100.00;100176.06;5132181;27;19923;-63
2021/01/05 05:39:57;;;;;;;;;;;7.50;99.90;;;6.81;100.00;100172.38;5132010;27;19969;-63
2021/01/05 05:42:56;;;;;;;;;;;7.40;99.90;;;6.78;100.00;100172.94;5132226;27;19923;-63
2021/01/05 05:45:26;;;;;;;;;;;7.40;99.90;;;6.74;100.00;100178.06;5132627;28;19923;-63
2021/01/05 05:47:58;;;;;;;;;;;7.40;99.90;;;6.71;100.00;100169.75;5132055;27;19931;-63
2021/01/05 05:50:33;;;;;;;;;;;7.30;99.90;;;6.60;100.00;100175.19;5113196;28;20389;-63
2021/01/05 05:53:05;;;;;;;;;;;7.30;99.90;;;6.57;100.00;100178.41;5114244;28;20370;-63
2021/01/05 05:55:49;;;;;;;;;;;7.20;99.90;;;6.57;100.00;100175.72;5131780;27;19923;-63
2021/01/05 05:58:20;;;;;;;;;;;7.20;99.90;;;6.50;100.00;100179.81;5132217;28;19988;-63
2021/01/05 06:00:49;;;;;;;;;;;7.10;99.90;;;6.41;100.00;100182.28;5131895;27;19927;-63
2021/01/05 06:03:19;;;;;;;;;;;7.00;99.90;;;6.36;100.00;100179.63;5132413;28;19931;-63
2021/01/05 06:05:46;;;;;;;;;;;7.00;99.90;;;6.32;100.00;100173.19;5131990;27;20262;-63
2021/01/05 06:08:15;;;;;;;;;;;6.90;99.90;;;6.24;100.00;100183.72;5131840;28;19975;-64
2021/01/05 06:10:42;;;;;;;;;;;6.90;99.90;;;6.15;100.00;100198.78;5113523;28;19923;-63
2021/01/05 06:13:10;;;;;;;;;;;6.80;99.90;;;6.02;100.00;100192.13;5132165;28;20373;-63
2021/01/05 06:15:38;;;;;;;;;;;6.70;99.90;;;5.98;100.00;100191.91;5132082;28;20369;-63
2021/01/05 06:18:07;;;;;;;;;;;6.60;99.90;;;5.96;100.00;100193.22;5113561;28;19923;-63
2021/01/05 06:20:34;;;;;;;;;;;6.60;99.90;;;5.82;100.00;100203.72;5096365;28;19927;-63
2021/01/05 06:23:01;;;;;;;;;;;6.50;99.90;;;5.73;100.00;100199.19;5113834;28;19980;-63
2021/01/05 06:25:28;;;;;;;;;;;6.40;99.90;;;5.65;100.00;100202.44;5132107;27;19930;-63
2021/01/05 06:27:55;;;;;;;;;;;6.30;99.90;;;5.59;100.00;100195.47;5131500;27;20370;-63
2021/01/05 06:30:23;;;;;;;;;;;6.30;99.90;;;5.60;100.00;100197.06;5131067;27;19986;-63
2021/01/05 06:32:51;;;;;;;;;;;6.30;99.90;;;5.65;100.00;100189.84;5131983;27;19923;-64
2021/01/05 06:35:20;;;;;;;;;;;6.30;99.90;;;5.57;100.00;100195.72;5131910;28;19927;-63
2021/01/05 06:37:49;;;;;;;;;;;6.20;99.90;;;5.42;100.00;100198.44;5131334;27;20313;-63
2021/01/05 06:40:17;;;;;;;;;;;6.10;99.90;;;5.33;100.00;100219.63;5130927;27;19945;-63
2021/01/05 06:42:44;;;;;;;;;;;6.00;99.90;;;5.27;100.00;100217.22;5131940;27;19984;-63
2021/01/05 06:45:16;;;;;;;;;;;5.90;99.90;;;5.22;100.00;100222.59;5131675;28;19924;-63
2021/01/05 06:47:43;;;;;;;;;;;5.90;99.90;;;5.24;100.00;100218.56;5131198;27;19941;-62
2021/01/05 06:50:13;;;;;;;;;;;5.80;99.90;;;5.20;100.00;100222.09;5130409;27;19923;-63
2021/01/05 06:52:40;;;;;;;;;;;5.90;99.90;;;5.14;100.00;100239.19;5113452;28;19927;-63
2021/01/05 06:55:08;;;;;;;;;;;5.80;99.90;;;5.07;100.00;100233.31;5116977;28;19946;-63
2021/01/05 06:57:35;;;;;;;;;;;5.80;99.90;;;5.12;100.00;100228.75;5134716;27;20384;-63
2021/01/05 07:00:05;;;;;;;;;;;5.80;99.90;;;5.10;100.00;100230.91;5134562;27;19924;-63
2021/01/05 07:02:32;;;;;;;;;;;5.80;99.90;;;5.13;100.00;100226.91;5134543;27;19930;-63
2021/01/05 07:04:59;;;;;;;;;;;5.80;99.90;;;5.12;100.00;100231.44;5135016;28;20370;-63
2021/01/05 07:07:27;;;;;;;;;;;5.80;99.90;;;5.09;100.00;100236.53;5116242;27;19943;-63
2021/01/05 07:09:54;;;;;;;;;;;5.70;99.90;;;5.06;100.00;100243.22;5134163;27;19935;-64
2021/01/05 07:12:21;;;;;;;;;;;5.70;99.90;;;5.04;100.00;100245.38;5134876;28;19927;-63
2021/01/05 07:14:48;;;;;;;;;;;5.70;99.90;;;5.00;100.00;100244.31;5116510;28;20339;-63
2021/01/05 07:17:15;;;;;;;;;;;5.70;99.90;;;4.98;100.00;100243.78;5134493;28;19924;-63
2021/01/05 07:19:42;;;;;;;;;;;5.60;99.90;;;4.93;100.00;100244.56;5115949;27;19923;-63
2021/01/05 07:22:09;;;;;;;;;;;5.60;99.90;;;4.93;100.00;100246.44;5134335;27;19923;-63
2021/01/05 07:24:37;;;;;;;;;;;5.60;99.90;;;4.94;100.00;100248.03;5134713;28;19927;-63
2021/01/05 07:27:05;;;;;;;;;;;5.60;99.90;;;4.88;100.00;100243.75;5115805;27;19927;-63
2021/01/05 07:29:33;;;;;;;;;;;5.50;99.90;;;4.86;100.00;100237.88;5115937;27;19923;-63
2021/01/05 07:32:00;;;;;;;;;;;5.50;99.90;;;4.85;100.00;100239.72;5116194;28;19939;-63
2021/01/05 07:34:27;;;;;;;;;;;5.50;99.90;;;4.88;100.00;100238.41;5134524;27;19928;-63
2021/01/05 07:36:57;;;;;;;;;;;5.50;99.90;;;5.02;100.00;100233.31;5133851;27;19930;-63
2021/01/05 07:39:26;;;;;;;;;;;5.60;99.90;;;5.09;100.00;100242.69;5133938;27;19931;-63
2021/01/05 07:42:15;;;;;;;;;;;5.70;99.90;;;5.06;100.00;100229.03;5114236;28;19924;-63
2021/01/05 07:44:43;;;;;;;;;;;5.70;99.90;;;5.07;100.00;100227.97;5100050;27;19928;-63
2021/01/05 07:47:10;;;;;;;;;;;5.70;99.90;;;5.12;100.00;100230.63;5133696;27;19934;-63
2021/01/05 07:49:38;;;;;;;;;;;5.80;99.90;;;5.18;100.00;100233.06;5133876;27;19927;-63
2021/01/05 07:52:17;;;;;;;;;;;5.90;99.90;;;5.12;100.00;100227.97;5134035;27;19923;-63
2021/01/05 07:54:44;;;;;;;;;;;5.80;99.90;;;5.18;100.00;100242.97;5134264;27;19924;-63
2021/01/05 07:57:12;;;;;;;;;;;5.80;99.90;;;5.20;100.00;100230.91;5098753;28;19930;-63
2021/01/05 07:59:39;;;;;;;;;;;5.90;99.90;;;5.30;100.00;100227.41;5133588;27;20411;-63
2021/01/05 08:02:07;;;;;;;;;;;5.90;99.90;;;5.40;100.00;100228.22;5133936;28;19934;-63
2021/01/05 08:04:34;;;;;;;;;;;6.00;99.90;;;5.56;100.00;100222.84;5134167;27;19931;-63
2021/01/05 08:07:01;;;;;;;;;;;6.20;99.90;;;5.51;100.00;100226.31;5133513;28;20390;-63
2021/01/05 08:09:28;;;;;;;;;;;6.30;99.90;;;5.40;100.00;100233.59;5115109;28;19923;-63
2021/01/05 08:11:55;;;;;;;;;;;6.00;99.90;;;5.36;100.00;100234.38;5133964;27;19930;-63
2021/01/05 08:14:23;;;;;;;;;;;5.90;99.90;;;5.28;100.00;100237.63;5115534;28;19930;-63
2021/01/05 08:16:50;;;;;;;;;;;5.90;99.90;;;5.24;100.00;100234.66;5115248;28;19924;-63
2021/01/05 08:19:18;;;;;;;;;;;5.90;99.90;;;5.30;100.00;100244.31;5133506;28;20367;-63
2021/01/05 08:21:45;;;;;;;;;;;6.00;99.90;;;5.36;100.00;100243.22;5133648;27;19927;-63
2021/01/05 08:24:12;;;;;;;;;;;6.00;99.90;;;5.41;100.00;100237.84;5133648;27;19923;-64
2021/01/05 08:26:43;;;;;;;;;;;6.00;99.90;;;5.40;100.00;100241.63;5133100;27;19927;-63
2021/01/05 08:29:10;;;;;;;;;;;6.00;99.90;;;5.39;100.00;100241.88;5133303;27;19923;-63
2021/01/05 08:31:42;;;;;;;;;;;6.00;99.90;;;5.40;100.00;100233.59;5115273;28;19930;-63
2021/01/05 08:34:09;;;;;;;;;;;6.00;99.90;;;5.47;100.00;100233.31;5098708;28;19980;-64
2021/01/05 08:36:37;;;;;;;;;;;6.10;99.90;;;5.55;100.00;100240.81;5132859;27;19927;-64
2021/01/05 08:39:05;;;;;;;;;;;6.10;99.90;;;5.66;100.00;100238.91;5098108;28;20435;-64
2021/01/05 08:41:32;;;;;;;;;;;6.20;99.90;;;5.76;100.00;100228.16;5133102;27;19927;-64
2021/01/05 08:43:59;;;;;;;;;;;6.30;99.90;;;5.90;100.00;100237.25;5133647;27;19980;-64
2021/01/05 08:46:29;;;;;;;;;;;6.40;99.90;;;6.12;100.00;100235.03;5132803;27;19931;-64
2021/01/05 08:48:57;;;;;;;;;;;6.60;99.90;;;6.43;100.00;100241.09;5114972;28;19923;-64
2021/01/05 08:51:24;;;;;;;;;;;6.90;99.90;;;6.70;100.00;100233.41;5114966;28;20063;-63
2021/01/05 08:53:52;;;;;;;;;;;7.20;99.90;;;6.88;100.00;100234.66;5098292;28;19924;-63
2021/01/05 08:56:20;;;;;;;;;;;7.40;99.90;;;6.98;100.00;100246.13;5132829;28;20404;-64
2021/01/05 08:58:47;;;;;;;;;;;7.50;99.90;;;7.05;100.00;100253.91;5114545;28;20271;-63
2021/01/05 09:01:15;;;;;;;;;;;7.60;99.90;;;7.09;100.00;100250.34;5132879;28;19923;-63
2021/01/05 09:03:42;;;;;;;;;;;7.60;99.90;;;7.12;100.00;100247.09;5133027;28;19945;-63
2021/01/05 09:06:11;;;;;;;;;;;7.70;99.90;;;7.15;100.00;100253.78;5132452;27;19927;-63
2021/01/05 09:08:39;;;;;;;;;;;7.70;99.90;;;7.19;100.00;100246.78;5132825;27;19973;-63
2021/01/05 09:11:14;;;;;;;;;;;7.90;99.90;;;7.52;100.00;100242.47;5132635;27;20350;-64
2021/01/05 09:13:41;;;;;;;;;;;8.00;99.90;;;7.73;99.94;100243.88;5132909;28;19924;-64
2021/01/05 09:16:08;;;;;;;;;;;8.20;99.90;;;7.92;99.29;100252.84;5132013;27;19924;-63
2021/01/05 09:18:35;;;;;;;;;;;8.40;99.90;;;8.01;98.33;100243.03;5114503;28;20373;-64
2021/01/05 09:21:04;;;;;;;;;;;8.50;99.90;;;8.06;98.31;100245.66;5132482;28;19924;-63
2021/01/05 09:23:32;;;;;;;;;;;8.60;99.90;;;8.23;98.20;100250.59;5114532;28;19923;-63
2021/01/05 09:25:59;;;;;;;;;;;8.70;99.90;;;8.34;96.18;100254.00;5132383;27;19928;-63
2021/01/05 09:28:27;;;;;;;;;;;8.80;99.90;;;8.55;95.88;100252.63;5113874;27;20255;-63
2021/01/05 09:30:55;;;;;;;;;;;;;;;8.80;95.19;100252.28;5132597;27;19924;-63
2021/01/05 09:33:23;;;;;;;;;;;9.30;99.90;;;8.88;93.62;100238.16;5132477;28;19928;-64
2021/01/05 09:35:50;;;;;;;;;;;9.40;99.90;;;9.03;91.88;100243.31;5132251;28;19924;-63
2021/01/05 09:38:17;;;;;;;;;;;9.50;99.90;;;8.93;92.42;100231.91;5132453;28;19927;-63
2021/01/05 09:40:45;;;;;;;;;;;9.40;99.90;;;8.94;92.04;100241.56;5132083;27;19930;-63
2021/01/05 09:43:13;;;;;;;;;;;9.50;99.90;;;8.93;91.84;100239.97;5132520;27;19950;-63
2021/01/05 09:45:40;;;;;;;;;;;9.50;99.90;;;8.96;91.16;100244.78;5132538;27;19931;-64
2021/01/05 09:48:09;;;;;;;;;;;;;;;9.04;90.87;100244.13;5132066;28;19968;-63
2021/01/05 09:50:38;;;;;;;;;;;9.50;99.90;;;9.09;90.89;100252.16;5131912;27;19927;-63
2021/01/05 09:53:05;;;;;;;;;;;9.60;99.90;;;9.07;89.59;100247.03;5114563;27;19924;-63
2021/01/05 09:55:33;;;;;;;;;;;9.60;99.90;;;8.95;89.57;100251.25;5132487;27;19930;-63
2021/01/05 09:58:01;;;;;;;;;;;9.50;99.90;;;8.95;88.64;100260.16;5132095;27;19923;-63
2021/01/05 10:00:28;;;;;;;;;;;9.50;99.90;;;8.89;90.77;100255.94;5113172;28;19923;-63
2021/01/05 10:02:55;;;;;;;;;;;9.50;99.90;;;8.94;90.32;100252.34;5131978;27;19923;-63
2021/01/05 10:05:24;;;;;;;;;;;9.50;99.90;;;8.91;88.70;100256.44;5132419;28;19924;-63
2021/01/05 10:07:51;;;;;;;;;;;9.40;99.90;;;8.73;89.22;100247.25;5131706;27;19931;-64
2021/01/05 10:10:21;;;;;;;;;;;9.30;99.90;;;8.67;89.34;100261.09;5131395;27;19950;-63
2021/01/05 10:12:48;;;;;;;;;;;9.20;99.90;;;8.63;89.50;100265.47;5131916;27;20293;-63
2021/01/05 10:15:17;;;;;;;;;;;9.20;99.90;;;8.74;89.54;100253.47;5132219;28;19952;-63
2021/01/05 10:17:44;;;;;;;;;;;9.20;99.90;;;8.78;89.84;100236.41;5131537;28;20366;-63
2021/01/05 10:20:13;;;;;;;;;;;9.30;99.90;;;9.10;90.50;100232.16;5131151;27;19930;-63
2021/01/05 10:22:41;;;;;;;;;;;9.60;99.90;;;9.14;88.61;100233.19;5131445;27;19992;-63
2021/01/05 10:25:10;;;;;;;;;;;9.60;99.90;;;9.17;88.57;100246.88;5113802;28;19931;-63
2021/01/05 10:27:37;;;;;;;;;;;9.70;99.90;;;9.35;89.74;100250.63;5131399;27;20378;-63
2021/01/05 10:30:05;;;;;;;;;;;9.90;99.90;;;9.44;86.66;100248.06;5134943;27;19923;-63
2021/01/05 10:32:33;;;;;;;;;;;10.00;99.90;;;9.33;85.77;100253.63;5135220;27;19927;-63
2021/01/05 10:35:00;;;;;;;;;;;9.90;99.90;;;9.29;85.20;100255.31;5135479;28;19984;-64
2021/01/05 10:37:27;;;;;;;;;;;9.80;99.90;;;9.30;83.46;100256.91;5134950;27;20381;-63
2021/01/05 10:39:54;;;;;;;;;;;;;;;9.36;83.60;100246.84;5134879;28;19923;-63
2021/01/05 10:42:21;;;;;;;;;;;9.90;99.90;;;9.44;83.01;100239.97;5135076;27;19927;-64
2021/01/05 10:44:48;;;;;;;;;;;10.00;99.90;;;9.69;82.53;100240.34;5117109;28;20301;-63
2021/01/05 10:47:15;;;;;;;;;;;10.20;99.90;;;9.65;82.29;100242.00;5134852;27;19931;-63
2021/01/05 10:49:43;;;;;;;;;;;10.20;99.90;;;9.69;81.91;100240.34;5116211;28;19962;-63
2021/01/05 10:52:15;;;;;;;;;;;10.20;99.90;;;9.69;81.82;100229.53;5135027;27;19930;-63
2021/01/05 10:54:42;;;;;;;;;;;10.20;99.90;;;9.59;81.73;100224.31;5135020;27;19930;-62
2021/01/05 10:57:10;;;;;;;;;;;10.20;99.90;;;9.56;81.39;100222.22;5116666;28;19923;-63
2021/01/05 10:59:40;;;;;;;;;;;10.10;99.90;;;9.59;80.08;100218.09;5134535;27;19928;-63
2021/01/05 11:02:09;;;;;;;;;;;10.10;99.90;;;9.70;80.83;100214.91;5116279;28;19976;-63
2021/01/05 11:04:36;;;;;;;;;;;10.30;99.90;;;9.95;80.79;100212.84;5134892;28;19976;-63
2021/01/05 11:07:06;;;;;;;;;;;10.40;99.90;;;9.93;79.52;100205.03;5134581;27;19974;-63
2021/01/05 11:09:34;;;;;;;;;;;10.50;99.90;;;9.74;79.58;100207.03;5134270;27;19927;-63
2021/01/05 11:12:03;;;;;;;;;;;10.30;99.90;;;9.67;81.36;100201.22;5134526;28;20297;-63
2021/01/05 11:14:30;;;;;;;;;;;10.20;99.90;;;9.70;81.16;100206.00;5134574;27;19927;-63
2021/01/05 11:16:57;;;;;;;;;;;10.30;99.90;;;9.75;78.98;100195.13;5133832;28;20366;-62
2021/01/05 11:19:24;;;;;;;;;;;10.40;99.90;;;9.86;81.65;100188.44;5134477;27;19923;-63
2021/01/05 11:21:53;;;;;;;;;;;10.40;99.90;;;10.04;79.81;100179.41;5134797;27;19932;-63
2021/01/05 11:24:21;;;;;;;;;;;10.50;99.90;;;10.09;79.04;100167.72;5134484;27;19994;-63
2021/01/05 11:26:48;;;;;;;;;;;10.60;99.90;;;10.26;77.42;100170.63;5134236;27;20285;-63
2021/01/05 11:29:16;;;;;;;;;;;10.70;99.90;;;10.25;75.97;100169.03;5134499;27;19931;-63
2021/01/05 11:31:43;;;;;;;;;;;10.80;99.90;;;10.27;76.29;100164.13;5134132;27;19923;-63
2021/01/05 11:34:10;;;;;;;;;;;10.80;99.90;;;10.44;75.99;100166.97;5099454;28;19931;-63
2021/01/05 11:36:38;;;;;;;;;;;10.90;99.90;;;10.49;74.49;100163.38;5115683;28;19923;-63
2021/01/05 11:39:06;;;;;;;;;;;11.00;99.90;;;10.65;75.05;100156.50;5115989;28;19923;-63
2021/01/05 11:41:35;;;;;;;;;;;11.20;99.90;;;10.84;74.13;100162.53;5098969;28;19927;-63
2021/01/05 11:44:04;;;;;;;;;;;11.30;99.90;;;10.87;72.45;100159.22;5134503;27;19968;-63
2021/01/05 11:46:32;;;;;;;;;;;;;;;10.96;71.87;100157.38;5133724;27;19927;-63
2021/01/05 11:48:59;;;;;;;;;;;11.50;99.90;;;11.00;70.95;100147.56;5115847;28;19927;-63
2021/01/05 11:51:29;;;;;;;;;;;;;;;11.02;69.76;100139.13;5113929;28;19923;-63
2021/01/05 11:53:56;;;;;;;;;;;11.60;99.90;;;10.91;67.10;100136.66;5134478;28;19931;-63
2021/01/05 11:56:24;;;;;;;;;;;;;;;10.97;69.55;100121.88;5098350;28;20351;-63
2021/01/05 11:58:52;;;;;;;;;;;11.50;99.90;;;11.14;67.34;100123.91;5134096;28;19928;-63
2021/01/05 12:01:19;;;;;;;;;;;11.60;99.90;;;11.47;68.13;100118.97;5115392;28;20339;-63
2021/01/05 12:03:47;;;;;;;;;;;11.80;99.90;;;11.48;67.66;100112.47;5134098;27;19935;-63
2021/01/05 12:06:16;;;;;;;;;;;11.90;99.90;;;11.64;68.20;100102.00;5133244;27;19930;-63
2021/01/05 12:08:43;;;;;;;;;;;12.10;99.90;;;11.61;65.91;100091.81;5133810;27;20336;-63
2021/01/05 12:11:16;;;;;;;;;;;12.00;99.90;;;11.70;66.75;100096.16;5133254;27;19981;-63
2021/01/05 12:13:43;;;;;;;;;;;12.20;99.90;;;11.52;65.76;100103.38;5133944;27;19947;-62
2021/01/05 12:16:11;;;;;;;;;;;12.10;99.90;;;11.29;64.52;100109.97;5113138;27;19927;-62
2021/01/05 12:18:39;;;;;;;;;;;11.90;99.90;;;11.05;65.98;100096.00;5133774;27;19950;-63
2021/01/05 12:21:06;;;;;;;;;;;11.70;99.90;;;10.90;65.02;100093.69;5133232;27;19931;-63
2021/01/05 12:23:33;;;;;;;;;;;11.50;99.90;;;10.84;67.64;100089.53;5133902;27;20059;-63
2021/01/05 12:26:00;;;;;;;;;;;11.50;99.90;;;10.83;69.43;100080.59;5114573;28;19931;-64
2021/01/05 12:28:27;;;;;;;;;;;11.50;99.90;;;10.89;70.46;100083.97;5133392;27;20393;-64
2021/01/05 12:30:55;;;;;;;;;;;11.50;99.90;;;10.97;70.01;100075.91;5114510;28;19923;-65
2021/01/05 12:33:22;;;;;;;;;;;11.60;99.90;;;11.00;70.62;100076.41;5133522;28;19924;-63
2021/01/05 12:35:51;;;;;;;;;;;11.60;99.90;;;10.87;69.48;100078.88;5132908;28;19930;-63
2021/01/05 12:38:18;;;;;;;;;;;11.50;99.90;;;10.70;69.52;100072.56;5133376;27;19927;-63
2021/01/05 12:40:49;;;;;;;;;;;11.30;99.90;;;10.72;69.65;100073.88;5114306;28;19924;-63
2021/01/05 12:43:17;;;;;;;;;;;11.40;99.90;;;10.72;69.43;100070.34;5133530;27;19923;-63
2021/01/05 12:45:43;;;;;;;;;;;11.30;99.90;;;10.69;69.50;100062.84;5133004;27;19937;-63
2021/01/05 12:48:11;;;;;;;;;;;11.30;99.90;;;10.62;71.44;100065.19;5114766;28;19927;-63
2021/01/05 12:50:39;;;;;;;;;;;11.20;99.90;;;10.62;70.82;100048.97;5113673;28;19927;-63
2021/01/05 12:53:06;;;;;;;;;;;11.20;99.90;;;10.57;71.05;100044.50;5133205;28;19982;-63
2021/01/05 12:55:33;;;;;;;;;;;11.20;99.90;;;10.55;71.30;100035.88;5114830;28;19923;-63
2021/01/05 12:58:00;;;;;;;;;;;11.10;99.90;;;10.54;71.89;100033.50;5132509;27;20437;-63
2021/01/05 13:00:27;;;;;;;;;;;11.10;99.90;;;10.64;73.15;100030.56;5114144;28;20406;-63
2021/01/05 13:02:54;;;;;;;;;;;11.20;99.90;;;10.67;72.87;100021.81;5124952;27;19924;-63
2021/01/05 13:05:21;;;;;;;;;;;11.30;99.90;;;10.70;69.84;100024.69;5112722;28;19930;-63
2021/01/05 13:07:49;;;;;;;;;;;11.30;99.90;;;10.65;65.38;100013.19;5111731;28;20370;-62
2021/01/05 13:10:17;;;;;;;;;;;11.20;99.90;;;10.59;65.48;100009.84;5111665;28;20409;-63
2021/01/05 13:12:44;;;;;;;;;;;11.10;99.90;;;10.63;67.05;100012.72;5078043;28;19927;-63
2021/01/05 13:15:12;;;;;;;;;;;11.20;99.90;;;10.70;66.16;100004.97;5096605;28;19999;-63
2021/01/05 13:17:40;;;;;;;;;;;11.30;99.90;;;10.73;64.45;100002.44;5110629;28;19924;-63
2021/01/05 13:20:10;;;;;;;;;;;11.30;99.90;;;10.76;63.88;99996.41;5111745;28;19931;-63
2021/01/05 13:22:38;;;;;;;;;;;11.30;99.90;;;10.83;64.67;99996.75;5112221;28;19928;-63
2021/01/05 13:25:09;;;;;;;;;;;11.40;99.90;;;10.70;63.89;99997.63;5112362;28;20552;-63
2021/01/05 13:27:36;;;;;;;;;;;11.30;99.90;;;10.71;65.72;99991.13;5111275;28;19947;-63
2021/01/05 13:30:05;;;;;;;;;;;11.30;99.90;;;10.77;66.44;99992.59;5111505;28;20268;-63
2021/01/05 13:32:33;;;;;;;;;;;11.30;99.90;;;10.74;65.45;99990.50;5109656;28;19924;-64
2021/01/05 13:35:00;;;;;;;;;;;11.30;99.90;;;10.71;66.67;99991.13;5112206;28;19924;-63
2021/01/05 13:37:27;;;;;;;;;;;11.30;99.90;;;10.70;64.73;99986.81;5076569;28;20375;-63
2021/01/05 13:39:54;;;;;;;;;;;11.30;99.90;;;10.59;62.56;99969.28;5111421;28;19928;-64
2021/01/05 13:42:23;;;;;;;;;;;11.20;99.90;;;10.58;63.96;99973.09;5111841;28;20306;-63
2021/01/05 13:44:50;;;;;;;;;;;11.20;99.90;;;10.59;63.89;99972.00;5099471;28;19923;-63
2021/01/05 13:47:20;;;;;;;;;;;11.20;99.90;;;10.56;64.89;99966.41;5111355;28;20283;-63
2021/01/05 13:49:47;;;;;;;;;;;11.10;99.90;;;10.51;64.24;99961.13;5111061;28;19920;-63
2021/01/05 13:52:16;;;;;;;;;;;11.10;99.90;;;10.55;65.09;99957.50;5104706;28;19924;-63